LSZC

Details ICAO LSZC (BXO)
Name Buochs
Region Switzerland
Timezone Europe/Zurich (UTC+1.0)
Plans Departing 104
Arriving 80
Stats Elevation 1,475 ft / 450 m (AMSL)
Location 46.973200° 8.397360°
Runways 2
Magnetic Variation 2.459° E
Sunrise 2019-03-20 05:31:43 UTC / 2019-03-20 06:31:43 Local
Sunset 2019-03-20 17:38:54 UTC / 2019-03-20 18:38:54 Local
Advertisement - Login to hide

Runways

ID Width Length Bearing (true/mag) Surface Threshold Overrun Markings Lighting
07L 131 ft / 40 m 6,570 ft / 2,002 m 64.09° / 61.63° ASPHALT 0 ft / 0 m 650 ft / 198 m APP EDGE THRESHOLD
07R 131 ft / 40 m 4,827 ft / 1,471 m 64.00° / 61.54° ASPHALT 0 ft / 0 m 1,161 ft / 354 m APP
25L 131 ft / 40 m 4,827 ft / 1,471 m 244.01° / 241.56° ASPHALT 0 ft / 0 m 1,161 ft / 354 m APP
25R 131 ft / 40 m 6,570 ft / 2,002 m 244.11° / 241.65° ASPHALT 0 ft / 0 m 650 ft / 198 m APP EDGE THRESHOLD SSALF

Map

Weather


0- 5 10 15 20 25 30 35+ Temperature / °C

Clouds and Precipitation
Forecast for 2019-03-20 06:00 UTC. Updated 5 hours ago

Ground ~20,000 ft ~40,000 ft Winds

METAR

LSZC 200820Z VRB01KT CAVOK 04/M02 Q1032

TAF

Not found

Frequencies

Tower 119.62 MHz
Warning: Do not use this data for real-world aviation or navigation. No guarantee of current accuracy is given.